Time;durP1;ratioP1;P1;durP2;ratioP2;P2;SDS_P1;SDS_P2;PMS_P1;PMS_P2;Temp;Humidity;BMP_temperature;BMP_pressure;BME280_temperature;BME280_humidity;BME280_pressure;Samples;Min_cycle;Max_cycle;Signal;HPM_P1;HPM_P2
2022/07/01 00:01:58;;;;;;;0.00;0.00;;;26.10;67.70;;;;;;4193250;28;20074;-66
2022/07/01 00:04:20;;;;;;;0.03;0.03;;;26.10;66.80;;;;;;4192552;28;20208;-66
2022/07/01 00:06:42;;;;;;;1.27;0.73;;;26.10;66.70;;;;;;4192599;28;20058;-66
2022/07/01 00:09:05;;;;;;;0.00;0.00;;;26.10;66.90;;;;;;4192707;28;20048;-66
2022/07/01 00:11:27;;;;;;;0.10;0.10;;;26.10;66.60;;;;;;4192313;28;20510;-67
2022/07/01 00:13:50;;;;;;;0.00;0.00;;;26.10;66.80;;;;;;4190807;28;20123;-66
2022/07/01 00:16:13;;;;;;;0.00;0.00;;;26.00;66.70;;;;;;4190960;28;20054;-66
2022/07/01 00:18:35;;;;;;;0.00;0.00;;;26.00;66.80;;;;;;4191127;28;20141;-67
2022/07/01 00:20:57;;;;;;;0.00;0.00;;;26.00;66.80;;;;;;4191340;28;20098;-67
2022/07/01 00:23:20;;;;;;;0.00;0.00;;;26.00;66.80;;;;;;4190800;28;20787;-66
2022/07/01 00:25:42;;;;;;;0.00;0.00;;;26.00;66.80;;;;;;4192354;28;20047;-66
2022/07/01 00:28:04;;;;;;;0.00;0.00;;;26.00;66.80;;;;;;4191065;28;20056;-66
2022/07/01 00:30:26;;;;;;;1.45;1.35;;;26.00;66.80;;;;;;4192309;28;20090;-67
2022/07/01 00:32:52;;;;;;;0.32;0.32;;;26.00;66.80;;;;;;4159682;28;20045;-66
2022/07/01 00:35:15;;;;;;;0.00;0.00;;;26.00;66.80;;;;;;4158112;28;20045;-66
2022/07/01 00:37:39;;;;;;;0.00;0.00;;;26.00;66.80;;;;;;4186544;28;20087;-66
2022/07/01 00:40:01;;;;;;;0.00;0.00;;;25.90;66.80;;;;;;4159591;28;20574;-66
2022/07/01 00:42:23;;;;;;;0.00;0.00;;;25.90;66.80;;;;;;4189256;28;20106;-66
2022/07/01 00:44:45;;;;;;;0.00;0.00;;;25.90;66.80;;;;;;4192330;28;20106;-66
2022/07/01 00:47:11;;;;;;;0.00;0.00;;;25.90;66.80;;;;;;4192027;28;20056;-66
2022/07/01 00:49:36;;;;;;;0.00;0.00;;;25.90;66.70;;;;;;4192271;28;20083;-66
2022/07/01 00:51:58;;;;;;;0.00;0.00;;;25.90;66.80;;;;;;4192081;28;20090;-65
2022/07/01 00:54:21;;;;;;;0.00;0.00;;;25.90;66.80;;;;;;4192152;28;20490;-66
2022/07/01 00:56:43;;;;;;;0.00;0.00;;;25.90;66.70;;;;;;4191322;28;20206;-66
2022/07/01 00:59:05;;;;;;;0.00;0.00;;;25.90;66.90;;;;;;4192173;28;20052;-66
2022/07/01 01:01:27;;;;;;;0.00;0.00;;;25.90;66.90;;;;;;4190423;28;20067;-65
2022/07/01 01:03:50;;;;;;;0.00;0.00;;;25.90;66.80;;;;;;4192144;28;20055;-65
2022/07/01 01:06:13;;;;;;;0.20;0.20;;;25.90;66.90;;;;;;4192220;28;20040;-65
2022/07/01 01:08:36;;;;;;;0.00;0.00;;;25.90;66.90;;;;;;4192222;28;20052;-66
2022/07/01 01:10:58;;;;;;;0.00;0.00;;;25.90;66.90;;;;;;4190161;28;20356;-65
2022/07/01 01:13:20;;;;;;;0.00;0.00;;;25.90;66.90;;;;;;4192370;28;20087;-66
2022/07/01 01:15:42;;;;;;;0.10;0.10;;;25.90;66.90;;;;;;4192081;28;20059;-66
2022/07/01 01:18:04;;;;;;;0.00;0.00;;;25.90;66.90;;;;;;4192330;28;20074;-66
2022/07/01 01:20:35;;;;;;;0.00;0.00;;;25.80;67.00;;;;;;4191432;28;20044;-66
2022/07/01 01:22:57;;;;;;;0.00;0.00;;;25.80;66.90;;;;;;4191967;28;20055;-66
2022/07/01 01:25:19;;;;;;;0.00;0.00;;;25.80;66.90;;;;;;4191758;28;20049;-65
2022/07/01 01:27:42;;;;;;;0.00;0.00;;;25.80;66.90;;;;;;4191351;28;20040;-66
2022/07/01 01:30:04;;;;;;;0.00;0.00;;;25.80;66.80;;;;;;4191390;28;20385;-66
2022/07/01 01:32:27;;;;;;;0.00;0.00;;;25.80;66.90;;;;;;4158629;28;20896;-65
2022/07/01 01:34:49;;;;;;;0.00;0.00;;;25.80;66.80;;;;;;4158923;28;20049;-66
2022/07/01 01:37:13;;;;;;;0.00;0.00;;;25.80;66.90;;;;;;4171602;28;20138;-66
2022/07/01 01:39:36;;;;;;;0.00;0.00;;;25.80;67.00;;;;;;4158894;28;20551;-66
2022/07/01 01:41:58;;;;;;;0.43;0.43;;;25.70;66.90;;;;;;4180283;28;20208;-67
2022/07/01 01:44:20;;;;;;;0.05;0.05;;;25.70;67.00;;;;;;4190711;28;20450;-67
2022/07/01 01:46:42;;;;;;;0.00;0.00;;;25.70;67.00;;;;;;4190173;28;20056;-68
2022/07/01 01:49:05;;;;;;;0.05;0.05;;;25.70;67.00;;;;;;4191963;28;20102;-67
2022/07/01 01:51:27;;;;;;;0.00;0.00;;;25.70;67.00;;;;;;4190296;28;20122;-67
2022/07/01 01:53:51;;;;;;;0.00;0.00;;;25.70;67.00;;;;;;4191943;28;20075;-66
2022/07/01 01:56:13;;;;;;;0.00;0.00;;;25.70;67.00;;;;;;4191672;28;20071;-67
2022/07/01 01:58:35;;;;;;;0.00;0.00;;;25.70;67.10;;;;;;4191376;28;20052;-67
2022/07/01 02:00:57;;;;;;;0.10;0.10;;;25.70;67.10;;;;;;4194525;28;20552;-69
2022/07/01 02:03:19;;;;;;;0.00;0.00;;;25.70;67.10;;;;;;4193822;28;20048;-67
2022/07/01 02:05:41;;;;;;;0.00;0.00;;;25.70;67.20;;;;;;4193399;28;20055;-67
2022/07/01 02:08:07;;;;;;;0.00;0.00;;;25.70;67.20;;;;;;4194701;28;20052;-67
2022/07/01 02:10:31;;;;;;;0.00;0.00;;;25.70;67.10;;;;;;4161680;28;20103;-67
2022/07/01 02:12:53;;;;;;;0.00;0.00;;;25.70;67.20;;;;;;4162075;28;20103;-66
2022/07/01 02:15:15;;;;;;;0.00;0.00;;;25.70;68.10;;;;;;4188582;28;20048;-67
2022/07/01 02:17:37;;;;;;;0.00;0.00;;;25.70;68.10;;;;;;4166833;28;20444;-66
2022/07/01 02:19:59;;;;;;;0.00;0.00;;;25.60;67.10;;;;;;4161613;28;20042;-66
2022/07/01 02:22:21;;;;;;;0.00;0.00;;;25.60;67.00;;;;;;4162035;28;20829;-66
2022/07/01 02:24:44;;;;;;;0.00;0.00;;;25.60;67.10;;;;;;4161615;28;20052;-67
2022/07/01 02:27:07;;;;;;;0.30;0.30;;;25.60;67.10;;;;;;4161967;28;20569;-66
2022/07/01 02:29:29;;;;;;;0.00;0.00;;;25.60;67.10;;;;;;4162684;28;20076;-67
2022/07/01 02:31:51;;;;;;;0.00;0.00;;;25.60;67.00;;;;;;4194522;28;20052;-67
2022/07/01 02:34:13;;;;;;;0.00;0.00;;;25.60;67.10;;;;;;4194376;28;20098;-67
2022/07/01 02:36:35;;;;;;;0.00;0.00;;;25.60;68.00;;;;;;4194720;28;20118;-66
2022/07/01 02:38:57;;;;;;;0.00;0.00;;;25.60;67.10;;;;;;4194237;28;20399;-67
2022/07/01 02:41:19;;;;;;;0.00;0.00;;;25.60;67.10;;;;;;4194099;28;20518;-66
2022/07/01 02:43:43;;;;;;;0.00;0.00;;;25.60;67.10;;;;;;4194163;28;20404;-67
2022/07/01 02:46:05;;;;;;;0.00;0.00;;;25.60;68.00;;;;;;4194158;28;20499;-67
2022/07/01 02:48:27;;;;;;;0.00;0.00;;;25.60;66.90;;;;;;4194249;28;20444;-66
2022/07/01 02:50:49;;;;;;;0.00;0.00;;;25.60;67.10;;;;;;4194634;28;20481;-67
2022/07/01 02:53:11;;;;;;;0.00;0.00;;;25.60;67.10;;;;;;4193940;28;20048;-67
2022/07/01 02:55:33;;;;;;;0.00;0.00;;;25.60;67.10;;;;;;4193708;28;20102;-66
2022/07/01 02:57:55;;;;;;;0.00;0.00;;;25.60;67.10;;;;;;4194222;28;20059;-66
2022/07/01 03:00:20;;;;;;;0.00;0.00;;;25.60;67.10;;;;;;4194472;28;20052;-66
2022/07/01 03:02:42;;;;;;;0.00;0.00;;;25.50;67.00;;;;;;4193923;28;20064;-66
2022/07/01 03:05:06;;;;;;;0.00;0.00;;;25.50;67.00;;;;;;4193992;28;22014;-65
2022/07/01 03:07:28;;;;;;;0.00;0.00;;;25.50;67.00;;;;;;4193831;28;20097;-66
2022/07/01 03:09:51;;;;;;;0.75;0.75;;;25.50;67.00;;;;;;4194029;28;20044;-65
2022/07/01 03:14:51;;;;;;;0.00;0.00;;;25.50;67.00;;;;;;4193631;28;20425;-65
2022/07/01 03:17:14;;;;;;;0.00;0.00;;;25.40;66.90;;;;;;4168566;28;20075;-65
2022/07/01 03:19:36;;;;;;;0.00;0.00;;;25.50;67.00;;;;;;4193809;28;20636;-66
2022/07/01 03:21:58;;;;;;;0.00;0.00;;;25.50;67.00;;;;;;4193935;28;20052;-66
2022/07/01 03:24:20;;;;;;;0.00;0.00;;;25.40;66.90;;;;;;4193574;28;20400;-67
2022/07/01 03:26:42;;;;;;;0.00;0.00;;;25.40;66.90;;;;;;4193880;28;20052;-66
2022/07/01 03:29:04;;;;;;;0.00;0.00;;;25.40;66.90;;;;;;4192230;28;20052;-65
2022/07/01 03:31:27;;;;;;;0.30;0.30;;;25.40;66.90;;;;;;4193862;28;20471;-66
2022/07/01 03:33:50;;;;;;;0.00;0.00;;;25.40;67.00;;;;;;4189252;28;20042;-66
2022/07/01 03:36:12;;;;;;;0.00;0.00;;;25.40;66.90;;;;;;4198239;28;20060;-67
2022/07/01 03:38:34;;;;;;;0.00;0.00;;;25.40;66.90;;;;;;4186675;28;20593;-65
2022/07/01 03:40:56;;;;;;;0.00;0.00;;;25.40;66.90;;;;;;4193581;28;20052;-66
2022/07/01 03:43:18;;;;;;;0.00;0.00;;;25.40;67.80;;;;;;4193493;28;20052;-66
2022/07/01 03:45:42;;;;;;;0.00;0.00;;;25.30;66.80;;;;;;4192758;28;20045;-66
2022/07/01 03:48:04;;;;;;;0.00;0.00;;;25.30;66.80;;;;;;4193718;28;20047;-66
2022/07/01 03:50:28;;;;;;;0.00;0.00;;;25.30;66.80;;;;;;4193538;28;20075;-67
2022/07/01 03:54:29;;;;;;;0.00;0.00;;;25.30;66.80;;;;;;4193145;28;20564;-68
2022/07/01 03:55:31;;;;;;;0.00;0.00;;;25.30;66.90;;;;;;4192392;28;20079;-69
2022/07/01 03:57:53;;;;;;;;;;;25.30;66.90;;;;;;4193765;28;25104;-68
2022/07/01 04:00:16;;;;;;;0.10;0.10;;;25.30;66.80;;;;;;4191496;28;19943;-66
2022/07/01 04:02:40;;;;;;;0.00;0.00;;;25.30;66.80;;;;;;4193237;28;20160;-72
2022/07/01 04:05:03;;;;;;;0.00;0.00;;;25.30;66.80;;;;;;4160072;28;20076;-71
2022/07/01 04:07:27;;;;;;;0.00;0.00;;;25.30;66.90;;;;;;4158833;28;20174;-71
2022/07/01 04:09:49;;;;;;;0.00;0.00;;;25.30;66.90;;;;;;4159638;28;20099;-71
2022/07/01 04:12:12;;;;;;;0.00;0.00;;;25.20;66.80;;;;;;4159942;28;20507;-72
2022/07/01 04:14:34;;;;;;;0.00;0.00;;;25.30;66.80;;;;;;4189853;28;20531;-72
2022/07/01 04:16:56;;;;;;;0.00;0.00;;;25.30;66.90;;;;;;4193019;28;20045;-71
2022/07/01 04:19:19;;;;;;;1.48;1.10;;;25.30;66.90;;;;;;4191383;28;20536;-72
2022/07/01 04:24:24;;;;;;;0.00;0.00;;;25.30;66.80;;;;;;4192891;28;20098;-73
2022/07/01 04:26:45;;;;;;;0.00;0.00;;;25.30;66.80;;;;;;4192778;28;20638;-73
2022/07/01 04:29:08;;;;;;;0.00;0.00;;;25.20;66.80;;;;;;4193027;28;20502;-73
2022/07/01 04:31:30;;;;;;;0.00;0.00;;;25.20;67.70;;;;;;4192858;28;20437;-71
2022/07/01 04:33:53;;;;;;;0.00;0.00;;;25.20;66.80;;;;;;4192248;28;20044;-73
2022/07/01 04:36:15;;;;;;;0.00;0.00;;;25.20;66.80;;;;;;4192238;28;20131;-72
2022/07/01 04:38:38;;;;;;;0.00;0.00;;;25.20;66.80;;;;;;4192849;28;20051;-72
2022/07/01 04:43:40;;;;;;;;;;;25.20;66.80;;;;;;4191070;28;20431;-73
2022/07/01 04:46:02;;;;;;;0.00;0.00;;;25.20;66.70;;;;;;4191934;28;20378;-73
2022/07/01 04:48:25;;;;;;;0.10;0.10;;;25.20;66.80;;;;;;4192458;28;20036;-73
2022/07/01 04:50:47;;;;;;;0.00;0.00;;;25.20;66.60;;;;;;4191738;28;20055;-73
2022/07/01 04:53:09;;;;;;;0.00;0.00;;;25.10;66.70;;;;;;4159601;28;20389;-74
2022/07/01 04:55:31;;;;;;;0.00;0.00;;;25.10;66.70;;;;;;4158792;28;20054;-73
2022/07/01 04:57:54;;;;;;;0.00;0.00;;;25.10;66.70;;;;;;4159327;28;20511;-74
2022/07/01 05:00:17;;;;;;;0.00;0.00;;;25.10;66.70;;;;;;4159398;28;20051;-74
2022/07/01 05:02:40;;;;;;;0.00;0.00;;;25.20;66.60;;;;;;4187986;28;20155;-73
2022/07/01 05:05:02;;;;;;;0.00;0.00;;;25.10;66.50;;;;;;4176610;28;20115;-73
2022/07/01 05:07:30;;;;;;;0.00;0.00;;;25.10;66.50;;;;;;4192137;28;20063;-72
2022/07/01 05:09:52;;;;;;;0.00;0.00;;;25.10;66.50;;;;;;4191652;28;20074;-73
2022/07/01 05:12:14;;;;;;;0.00;0.00;;;25.10;66.40;;;;;;4190375;28;20055;-73
2022/07/01 05:14:38;;;;;;;0.00;0.00;;;25.10;66.40;;;;;;4191692;28;20132;-73
2022/07/01 05:17:00;;;;;;;0.00;0.00;;;25.10;66.30;;;;;;4190570;28;20052;-73
2022/07/01 05:22:02;;;;;;;0.00;0.00;;;25.10;66.50;;;;;;4191918;28;20118;-74
2022/07/01 05:24:24;;;;;;;0.03;0.03;;;25.00;66.30;;;;;;4191655;28;20044;-71
2022/07/01 05:26:46;;;;;;;0.00;0.00;;;25.00;66.30;;;;;;4190702;28;20075;-72
2022/07/01 05:29:08;;;;;;;0.00;0.00;;;25.00;66.30;;;;;;4191521;28;20123;-71
2022/07/01 05:31:32;;;;;;;0.00;0.00;;;25.00;66.40;;;;;;4192226;28;20052;-74
2022/07/01 05:33:54;;;;;;;0.40;0.40;;;25.10;66.50;;;;;;4191731;28;20109;-71
2022/07/01 05:36:16;;;;;;;0.00;0.00;;;25.00;66.70;;;;;;4190501;28;20052;-71
2022/07/01 05:38:39;;;;;;;0.00;0.00;;;25.10;66.90;;;;;;4181182;28;20431;-70
2022/07/01 05:41:01;;;;;;;0.00;0.00;;;25.00;67.50;;;;;;4175570;28;20407;-71
2022/07/01 05:43:23;;;;;;;0.00;0.00;;;25.10;66.70;;;;;;4167029;28;20507;-70
2022/07/01 05:45:45;;;;;;;0.00;0.00;;;25.00;66.60;;;;;;4174021;28;20064;-70
2022/07/01 05:48:08;;;;;;;0.00;0.00;;;25.00;66.60;;;;;;4174710;28;20495;-70
2022/07/01 05:50:30;;;;;;;0.35;0.35;;;25.00;66.60;;;;;;4188362;28;20044;-70
2022/07/01 05:52:52;;;;;;;0.10;0.10;;;25.00;66.60;;;;;;4179723;28;20060;-70
2022/07/01 05:55:14;;;;;;;0.00;0.00;;;25.00;66.50;;;;;;4174544;28;20103;-72
2022/07/01 05:57:36;;;;;;;0.00;0.00;;;25.00;66.20;;;;;;4174604;28;20047;-71
2022/07/01 05:59:58;;;;;;;0.10;0.10;;;25.00;65.70;;;;;;4183172;28;20041;-72
2022/07/01 06:02:20;;;;;;;0.25;0.25;;;25.00;65.40;;;;;;4173001;28;20132;-70
2022/07/01 06:04:44;;;;;;;0.10;0.10;;;25.00;65.90;;;;;;4175015;28;20503;-71
2022/07/01 06:07:06;;;;;;;0.00;0.00;;;25.00;64.30;;;;;;4174041;28;20095;-70
2022/07/01 06:09:27;;;;;;;0.00;0.00;;;25.00;63.90;;;;;;4180651;28;20045;-70
2022/07/01 06:11:50;;;;;;;0.03;0.03;;;25.00;63.30;;;;;;4191469;28;20048;-70
2022/07/01 06:14:12;;;;;;;0.00;0.00;;;24.90;62.90;;;;;;4191494;28;20511;-71
2022/07/01 06:16:34;;;;;;;0.15;0.15;;;24.90;62.40;;;;;;4191247;28;20052;-70
2022/07/01 06:18:56;;;;;;;4.57;1.10;;;24.90;62.00;;;;;;4174354;28;20049;-71
2022/07/01 06:21:20;;;;;;;0.08;0.08;;;24.90;62.00;;;;;;4191860;28;20158;-71
2022/07/01 06:23:42;;;;;;;0.00;0.00;;;24.80;62.30;;;;;;4188243;28;20876;-71
2022/07/01 06:26:04;;;;;;;0.00;0.00;;;24.80;62.50;;;;;;4190106;28;20466;-70
2022/07/01 06:28:29;;;;;;;2.83;0.70;;;24.80;62.60;;;;;;4201712;28;20105;-70
2022/07/01 06:30:54;;;;;;;0.45;0.45;;;24.80;62.40;;;;;;4174513;28;20056;-71
2022/07/01 06:33:17;;;;;;;2.50;0.47;;;24.80;62.20;;;;;;4172486;28;20106;-71
2022/07/01 06:35:39;;;;;;;0.00;0.00;;;24.80;62.20;;;;;;4157111;28;20053;-71
2022/07/01 06:38:02;;;;;;;0.52;0.52;;;24.80;62.00;;;;;;4158477;28;20045;-71
2022/07/01 06:40:25;;;;;;;0.00;0.00;;;24.80;62.00;;;;;;4158003;28;20049;-71
2022/07/01 06:42:47;;;;;;;0.00;0.00;;;24.80;61.70;;;;;;4158331;28;20111;-72
2022/07/01 06:45:11;;;;;;;0.10;0.10;;;24.80;61.80;;;;;;4157773;28;20045;-70
2022/07/01 06:47:32;;;;;;;0.17;0.17;;;24.80;61.80;;;;;;4161029;28;20041;-71
2022/07/01 06:49:54;;;;;;;0.03;0.03;;;24.80;61.80;;;;;;4160274;28;20132;-70
2022/07/01 06:52:19;;;;;;;0.00;0.00;;;24.70;61.70;;;;;;4172427;28;20148;-71
2022/07/01 06:54:43;;;;;;;0.13;0.13;;;24.80;61.80;;;;;;4176680;28;20049;-70
2022/07/01 06:57:06;;;;;;;0.08;0.08;;;24.70;61.70;;;;;;4177456;28;20080;-71
2022/07/01 06:59:28;;;;;;;0.00;0.00;;;24.70;61.70;;;;;;4176611;28;20048;-70
2022/07/01 07:01:50;;;;;;;0.30;0.30;;;24.70;61.60;;;;;;4177235;28;20511;-68
2022/07/01 07:04:13;;;;;;;0.32;0.32;;;24.70;61.40;;;;;;4162005;28;20127;-68
2022/07/01 07:06:35;;;;;;;0.45;0.45;;;24.70;61.30;;;;;;4160202;28;20045;-70
2022/07/01 07:08:57;;;;;;;0.08;0.05;;;24.80;61.40;;;;;;4160038;28;20060;-68
2022/07/01 07:11:20;;;;;;;0.00;0.00;;;24.80;61.30;;;;;;4158146;28;20516;-70
2022/07/01 07:13:43;;;;;;;0.20;0.20;;;24.80;61.20;;;;;;4160286;28;20087;-69
2022/07/01 07:16:06;;;;;;;0.30;0.30;;;24.80;61.10;;;;;;4160131;28;20048;-69
2022/07/01 07:18:28;;;;;;;0.60;0.60;;;24.80;61.00;;;;;;4160329;28;20544;-69
2022/07/01 07:20:49;;;;;;;0.57;0.57;;;24.80;60.80;;;;;;4176194;28;20056;-68
2022/07/01 07:23:11;;;;;;;0.93;0.93;;;24.80;60.60;;;;;;4193135;28;20124;-69
2022/07/01 07:25:34;;;;;;;0.00;0.00;;;24.80;60.60;;;;;;4191779;28;20517;-69
2022/07/01 07:27:57;;;;;;;0.00;0.00;;;24.80;60.60;;;;;;4191727;28;20158;-69
2022/07/01 07:30:21;;;;;;;0.15;0.15;;;24.80;60.30;;;;;;4175165;28;20056;-69
2022/07/01 07:32:43;;;;;;;0.90;0.63;;;24.80;60.30;;;;;;4143522;28;20050;-69
2022/07/01 07:35:06;;;;;;;0.10;0.10;;;24.80;60.30;;;;;;4143758;28;20050;-69
2022/07/01 07:37:32;;;;;;;0.10;0.10;;;24.70;60.00;;;;;;4143576;28;20060;-69
2022/07/01 07:39:53;;;;;;;1.00;1.00;;;24.70;59.90;;;;;;4148390;28;20408;-69
2022/07/01 07:42:15;;;;;;;0.30;0.30;;;24.70;59.90;;;;;;4175973;28;20857;-69
2022/07/01 07:44:39;;;;;;;4.00;0.55;;;24.70;59.80;;;;;;4176108;28;20090;-69
2022/07/01 07:47:01;;;;;;;0.52;0.45;;;24.70;59.80;;;;;;4175281;28;20045;-69
2022/07/01 07:49:24;;;;;;;0.50;0.50;;;24.70;59.90;;;;;;4176210;28;20060;-69
2022/07/01 07:51:46;;;;;;;2.90;0.75;;;24.70;59.90;;;;;;4170324;28;20061;-69
2022/07/01 07:54:08;;;;;;;0.00;0.00;;;24.70;59.90;;;;;;4143364;28;20050;-69
2022/07/01 07:56:31;;;;;;;0.10;0.10;;;24.70;59.80;;;;;;4162053;28;20151;-70
2022/07/01 07:58:53;;;;;;;0.00;0.00;;;24.70;59.80;;;;;;4176085;28;20148;-69
2022/07/01 08:01:16;;;;;;;0.40;0.40;;;24.70;59.80;;;;;;4191710;28;20041;-69
2022/07/01 08:03:38;;;;;;;0.35;0.35;;;24.70;59.70;;;;;;4193291;28;20047;-71
2022/07/01 08:06:00;;;;;;;1.25;0.55;;;24.70;60.50;;;;;;4192727;28;20510;-70
2022/07/01 08:08:23;;;;;;;0.15;0.15;;;24.70;59.70;;;;;;4190969;28;20040;-68
2022/07/01 08:10:44;;;;;;;0.35;0.35;;;24.70;59.70;;;;;;4192061;28;20052;-69
2022/07/01 08:13:06;;;;;;;0.17;0.17;;;24.60;59.60;;;;;;4176513;28;20041;-72
2022/07/01 08:15:28;;;;;;;0.10;0.10;;;24.60;59.70;;;;;;4176479;28;20060;-71
2022/07/01 08:17:51;;;;;;;0.65;0.65;;;24.60;59.70;;;;;;4176531;28;20389;-72
2022/07/01 08:20:13;;;;;;;0.32;0.32;;;24.60;59.70;;;;;;4176105;28;20052;-71
2022/07/01 08:22:35;;;;;;;1.17;0.93;;;24.60;59.60;;;;;;4175905;28;20408;-70
2022/07/01 08:24:57;;;;;;;0.10;0.10;;;24.60;59.50;;;;;;4142941;28;20485;-71
2022/07/01 08:27:20;;;;;;;3.40;1.05;;;24.60;59.50;;;;;;4159643;28;20134;-70
2022/07/01 08:29:42;;;;;;;0.10;0.10;;;24.60;59.50;;;;;;4176102;28;20073;-71
2022/07/01 08:32:05;;;;;;;0.00;0.00;;;24.60;59.50;;;;;;4174913;28;20400;-71
2022/07/01 08:34:29;;;;;;;0.43;0.43;;;24.60;59.40;;;;;;4175198;28;20059;-71
2022/07/01 08:36:51;;;;;;;0.00;0.00;;;24.60;59.40;;;;;;4174624;28;20051;-71
2022/07/01 08:39:13;;;;;;;0.50;0.50;;;24.60;59.40;;;;;;4175191;28;20558;-70
2022/07/01 08:41:35;;;;;;;0.22;0.20;;;24.60;59.30;;;;;;4191349;28;20526;-72
2022/07/01 08:43:57;;;;;;;0.10;0.10;;;24.60;59.40;;;;;;4142687;28;20147;-71
2022/07/01 08:46:19;;;;;;;0.00;0.00;;;24.60;59.40;;;;;;4143025;28;20049;-71
2022/07/01 08:48:43;;;;;;;0.00;0.00;;;24.60;59.40;;;;;;4142491;28;20050;-71
2022/07/01 08:51:07;;;;;;;0.70;0.70;;;24.60;59.40;;;;;;4143101;28;20134;-71
2022/07/01 08:53:29;;;;;;;0.00;0.00;;;24.60;59.50;;;;;;4156672;28;20139;-70
2022/07/01 08:58:31;;;;;;;0.00;0.00;;;24.60;59.40;;;;;;4175186;28;20069;-72
2022/07/01 09:00:53;;;;;;;0.40;0.40;;;24.60;59.20;;;;;;4159656;28;20053;-70
2022/07/01 09:03:22;;;;;;;0.10;0.10;;;24.60;59.10;;;;;;4174970;28;20055;-70
2022/07/01 09:05:51;;;;;;;0.00;0.00;;;24.60;59.10;;;;;;4175422;28;20404;-70
2022/07/01 09:08:14;;;;;;;0.50;0.50;;;24.70;59.30;;;;;;4173771;28;20169;-70
2022/07/01 09:10:37;;;;;;;0.30;0.30;;;24.70;59.40;;;;;;4174844;28;20506;-70
2022/07/01 09:13:06;;;;;;;0.25;0.25;;;24.80;59.50;;;;;;4163295;28;20564;-70
2022/07/01 09:15:30;;;;;;;0.00;0.00;;;24.80;59.60;;;;;;4142666;28;20181;-72
2022/07/01 09:17:53;;;;;;;0.05;0.05;;;24.80;59.80;;;;;;4142070;28;20061;-70
2022/07/01 09:20:25;;;;;;;0.00;0.00;;;24.80;59.60;;;;;;4158659;28;20401;-72
2022/07/01 09:22:58;;;;;;;0.20;0.20;;;24.80;59.50;;;;;;4183500;28;20058;-66
2022/07/01 09:25:28;;;;;;;1.75;1.42;;;24.90;59.60;;;;;;4191965;28;20051;-66
2022/07/01 09:28:07;;;;;;;0.00;0.00;;;25.00;59.70;;;;;;4191976;28;20072;-67
2022/07/01 09:30:29;;;;;;;0.03;0.03;;;25.00;59.60;;;;;;4175356;28;20041;-69
2022/07/01 09:33:06;;;;;;;0.10;0.10;;;25.10;59.30;;;;;;4172662;28;20421;-66
2022/07/01 09:35:32;;;;;;;0.63;0.63;;;25.10;59.20;;;;;;4174845;28;20407;-61
2022/07/01 09:37:56;;;;;;;0.60;0.60;;;25.10;59.10;;;;;;4175165;28;20060;-61
2022/07/01 09:40:18;;;;;;;0.00;0.00;;;25.10;59.00;;;;;;4175080;28;20060;-61
2022/07/01 09:42:46;;;;;;;0.20;0.20;;;25.10;59.00;;;;;;4174706;28;20442;-61
2022/07/01 09:45:11;;;;;;;0.10;0.10;;;25.10;59.10;;;;;;4175748;28;20128;-61
2022/07/01 09:47:34;;;;;;;0.75;0.75;;;25.10;59.10;;;;;;4173055;28;20491;-61
2022/07/01 09:49:57;;;;;;;0.00;0.00;;;25.10;59.10;;;;;;4175153;28;20118;-61
2022/07/01 09:52:21;;;;;;;0.00;0.00;;;25.10;59.10;;;;;;4175027;28;20057;-61
2022/07/01 09:54:44;;;;;;;0.00;0.00;;;25.10;59.10;;;;;;4175350;28;20060;-61
2022/07/01 09:57:06;;;;;;;0.00;0.00;;;25.10;59.00;;;;;;4174853;28;20114;-62
2022/07/01 09:59:29;;;;;;;0.00;0.00;;;25.10;59.10;;;;;;4175361;28;20125;-61
2022/07/01 10:01:52;;;;;;;0.10;0.10;;;25.10;59.10;;;;;;4175670;28;20131;-61
2022/07/01 10:04:16;;;;;;;0.08;0.08;;;25.10;59.20;;;;;;4175079;28;20162;-62
2022/07/01 10:06:59;;;;;;;0.00;0.00;;;25.10;59.30;;;;;;4175398;28;20057;-61
2022/07/01 10:09:44;;;;;;;0.03;0.03;;;25.10;59.30;;;;;;4175277;28;20138;-61
2022/07/01 10:12:32;;;;;;;0.00;0.00;;;25.10;59.30;;;;;;4175228;28;20182;-61
2022/07/01 10:14:59;;;;;;;0.25;0.25;;;25.10;59.30;;;;;;4191794;28;20071;-61
2022/07/01 10:17:29;;;;;;;0.00;0.00;;;25.10;59.30;;;;;;4191643;28;20125;-61
2022/07/01 10:19:56;;;;;;;0.38;0.35;;;25.10;59.30;;;;;;4190991;28;20464;-61
2022/07/01 10:22:29;;;;;;;0.00;0.00;;;25.10;59.30;;;;;;4194701;28;20063;-62
2022/07/01 10:24:51;;;;;;;0.00;0.00;;;25.10;59.30;;;;;;4194226;28;20127;-60
2022/07/01 10:27:21;;;;;;;0.10;0.10;;;25.20;59.30;;;;;;4193471;28;20829;-60
2022/07/01 10:29:43;;;;;;;0.00;0.00;;;25.20;60.10;;;;;;4194649;28;20052;-60
2022/07/01 10:32:26;;;;;;;0.00;0.00;;;25.20;59.30;;;;;;4194721;28;20048;-60
2022/07/01 10:35:08;;;;;;;0.20;0.20;;;25.20;59.30;;;;;;4194539;28;20068;-60
2022/07/01 10:37:31;;;;;;;0.00;0.00;;;25.20;59.30;;;;;;4194591;28;20548;-61
2022/07/01 10:39:57;;;;;;;0.10;0.10;;;25.20;59.30;;;;;;4194500;28;20536;-61
2022/07/01 10:42:19;;;;;;;0.00;0.00;;;25.20;59.10;;;;;;4194393;28;20515;-61
2022/07/01 10:45:01;;;;;;;0.20;0.20;;;25.30;59.20;;;;;;4194639;28;20082;-61
2022/07/01 10:47:24;;;;;;;0.80;0.70;;;25.30;59.20;;;;;;4194366;28;20056;-60
2022/07/01 10:49:55;;;;;;;0.00;0.00;;;25.30;59.80;;;;;;4194432;28;20051;-61
2022/07/01 10:52:18;;;;;;;0.00;0.00;;;25.30;59.00;;;;;;4194121;28;20114;-61
2022/07/01 10:54:48;;;;;;;0.10;0.10;;;25.30;59.00;;;;;;4194181;28;20053;-60
2022/07/01 10:57:26;;;;;;;;;;;25.30;58.90;;;;;;4194600;28;20519;-60
2022/07/01 10:59:51;;;;;;;0.00;0.00;;;25.40;58.90;;;;;;4194194;28;19932;-60
2022/07/01 11:02:13;;;;;;;0.00;0.00;;;25.40;58.80;;;;;;4194093;28;20125;-60
2022/07/01 11:04:40;;;;;;;0.10;0.10;;;25.40;58.80;;;;;;4192762;28;20082;-60
2022/07/01 11:07:03;;;;;;;0.00;0.00;;;25.40;58.80;;;;;;4193956;28;20058;-60
2022/07/01 11:09:26;;;;;;;0.10;0.10;;;25.40;58.70;;;;;;4192479;28;20151;-60
2022/07/01 11:11:47;;;;;;;0.00;0.00;;;25.50;58.90;;;;;;4193742;28;20056;-61
2022/07/01 11:14:09;;;;;;;0.00;0.00;;;25.50;58.80;;;;;;4194065;28;20063;-60
2022/07/01 11:16:32;;;;;;;0.00;0.00;;;25.50;58.90;;;;;;4192321;28;20106;-60
2022/07/01 11:18:54;;;;;;;5.78;1.17;;;25.50;58.80;;;;;;4193987;28;20048;-60
2022/07/01 11:21:18;;;;;;;0.47;0.47;;;25.50;58.80;;;;;;4193851;28;20044;-60
2022/07/01 11:23:40;;;;;;;0.30;0.30;;;25.50;58.70;;;;;;4194094;28;20127;-60
2022/07/01 11:26:03;;;;;;;0.00;0.00;;;25.50;58.60;;;;;;4193630;28;20059;-60
2022/07/01 11:28:25;;;;;;;0.00;0.00;;;25.60;59.30;;;;;;4193620;28;20106;-60
2022/07/01 11:30:47;;;;;;;0.00;0.00;;;25.50;58.50;;;;;;4193675;28;20060;-60
2022/07/01 11:33:10;;;;;;;0.00;0.00;;;25.60;59.20;;;;;;4193854;28;20109;-60
2022/07/01 11:40:56;;;;;;;0.20;0.20;;;25.60;58.40;;;;;;4193475;28;20044;-60
2022/07/01 11:43:20;;;;;;;0.20;0.20;;;25.60;58.40;;;;;;4193472;28;20083;-61
2022/07/01 11:45:43;;;;;;;0.00;0.00;;;25.60;58.30;;;;;;4193813;28;20047;-61
2022/07/01 11:48:05;;;;;;;0.00;0.00;;;25.50;58.30;;;;;;4193345;28;20138;-61
2022/07/01 11:50:27;;;;;;;0.32;0.32;;;25.50;58.20;;;;;;4193770;28;20106;-60
2022/07/01 11:52:49;;;;;;;0.20;0.20;;;25.50;58.30;;;;;;4193185;28;20117;-61
2022/07/01 11:55:13;;;;;;;0.00;0.00;;;25.50;58.40;;;;;;4193344;28;20537;-60
2022/07/01 11:57:56;;;;;;;0.03;0.03;;;25.40;58.40;;;;;;4193545;28;20063;-60
2022/07/01 12:00:19;;;;;;;0.17;0.17;;;25.30;58.40;;;;;;4193206;28;20048;-61
2022/07/01 12:02:44;;;;;;;0.20;0.20;;;25.30;58.40;;;;;;4193282;28;20811;-61
2022/07/01 12:05:08;;;;;;;0.00;0.00;;;25.30;58.60;;;;;;4193422;28;20139;-60
2022/07/01 12:07:31;;;;;;;0.00;0.00;;;25.30;58.50;;;;;;4193282;28;20407;-61
2022/07/01 12:09:53;;;;;;;0.38;0.38;;;25.30;58.70;;;;;;4193174;28;20470;-60
2022/07/01 12:12:23;;;;;;;0.10;0.10;;;25.30;58.70;;;;;;4193216;28;20113;-61
2022/07/01 12:14:53;;;;;;;0.00;0.00;;;25.30;58.60;;;;;;4193045;28;20093;-60
2022/07/01 12:17:17;;;;;;;0.00;0.00;;;25.30;58.70;;;;;;4191295;28;20048;-60
2022/07/01 12:19:41;;;;;;;0.00;0.00;;;25.30;58.70;;;;;;4192830;28;20102;-60
2022/07/01 12:22:11;;;;;;;0.30;0.30;;;25.30;58.70;;;;;;4193017;28;20503;-61
2022/07/01 12:24:33;;;;;;;0.00;0.00;;;25.30;58.70;;;;;;4192626;28;20054;-60
2022/07/01 12:27:03;;;;;;;0.00;0.00;;;25.20;58.70;;;;;;4193206;28;20407;-60
2022/07/01 12:29:28;;;;;;;0.22;0.22;;;25.20;58.70;;;;;;4192669;28;20115;-61
2022/07/01 12:31:57;;;;;;;0.00;0.00;;;25.20;58.80;;;;;;4192558;28;20048;-60
2022/07/01 12:34:19;;;;;;;0.00;0.00;;;25.20;58.70;;;;;;4192489;28;20057;-60
2022/07/01 12:36:49;;;;;;;0.00;0.00;;;25.20;58.80;;;;;;4191401;28;20518;-60
2022/07/01 12:39:11;;;;;;;0.00;0.00;;;25.20;58.90;;;;;;4192587;28;20391;-60
2022/07/01 12:41:34;;;;;;;0.00;0.00;;;25.30;58.90;;;;;;4193009;28;20673;-60
2022/07/01 12:44:00;;;;;;;0.00;0.00;;;25.30;58.90;;;;;;4191735;28;20193;-60
2022/07/01 12:46:30;;;;;;;0.28;0.28;;;25.30;58.90;;;;;;4192496;28;20056;-60
2022/07/01 12:48:52;;;;;;;0.00;0.00;;;25.30;58.80;;;;;;4192172;28;20052;-60